createdAt,value
2023-05-17T10:26:52.402Z,57.90
2023-05-17T10:27:52.405Z,58.62
2023-05-17T10:28:52.395Z,57.98
2023-05-17T10:29:52.391Z,57.06
2023-05-17T10:30:52.391Z,56.35
2023-05-17T10:31:52.366Z,57.44
2023-05-17T10:32:52.439Z,55.91
2023-05-17T10:33:52.427Z,55.71
2023-05-17T10:35:02.077Z,53.88
2023-05-17T10:35:52.312Z,53.98
2023-05-17T10:36:52.319Z,54.39
2023-05-17T10:37:52.314Z,54.49
2023-05-17T10:38:52.284Z,54.59
2023-05-17T10:39:52.299Z,54.28
2023-05-17T10:40:52.264Z,54.92
2023-05-17T10:41:53.000Z,54.51
2023-05-17T10:42:52.299Z,54.64
2023-05-17T10:43:52.231Z,54.67
2023-05-17T10:44:52.258Z,54.46
2023-05-17T10:45:52.209Z,55.26
2023-05-17T10:46:52.243Z,55.18
2023-05-17T10:47:52.277Z,55.76
2023-05-17T10:48:52.320Z,56.37
2023-05-17T10:49:52.242Z,55.84
2023-05-17T10:51:01.184Z,55.74
2023-05-17T10:51:52.149Z,55.02
2023-05-17T10:52:52.171Z,55.02
2023-05-17T10:53:52.137Z,55.74
2023-05-17T10:54:52.148Z,55.05
2023-05-17T10:55:52.086Z,54.85
2023-05-17T10:56:52.167Z,55.28
2023-05-17T10:57:52.246Z,55.69
2023-05-17T10:58:52.077Z,56.40
2023-05-17T10:59:52.044Z,55.26
2023-05-17T11:00:53.197Z,54.85
2023-05-17T11:01:52.012Z,54.85
2023-05-17T11:02:52.161Z,54.54
2023-05-17T11:03:52.060Z,53.83
2023-05-17T11:04:52.042Z,52.98
2023-05-17T11:05:52.442Z,53.09
2023-05-17T11:06:52.160Z,54.41
2023-05-17T11:07:52.014Z,53.50
2023-05-17T11:08:51.985Z,53.90
2023-05-17T11:09:51.931Z,54.00
2023-05-17T11:10:51.982Z,54.92
2023-05-17T11:11:51.918Z,54.85
2023-05-17T11:12:51.900Z,53.62
2023-05-17T11:13:51.901Z,54.94
2023-05-17T11:14:51.914Z,54.16
2023-05-17T11:15:52.467Z,54.46
2023-05-17T11:16:51.941Z,54.77
2023-05-17T11:17:51.938Z,54.57
2023-05-17T11:18:52.159Z,55.48
2023-05-17T11:19:51.928Z,55.48
2023-05-17T11:20:52.061Z,54.54
2023-05-17T11:21:51.826Z,54.24
2023-05-17T11:22:51.817Z,52.60
2023-05-17T11:23:51.819Z,53.31
2023-05-17T11:24:51.771Z,53.09
2023-05-17T11:25:52.129Z,52.98
2023-05-17T11:26:51.755Z,53.29
2023-05-17T11:27:51.805Z,52.35
2023-05-17T11:28:52.264Z,53.16
2023-05-17T11:29:51.717Z,53.37
2023-05-17T11:30:51.984Z,52.53
2023-05-17T11:31:51.720Z,51.61
2023-05-17T11:32:52.406Z,52.33
2023-05-17T11:33:51.853Z,51.92
2023-05-17T11:34:51.686Z,51.61
2023-05-17T11:35:51.822Z,51.61
2023-05-17T11:36:51.684Z,51.51
2023-05-17T11:37:51.654Z,50.90
2023-05-17T11:38:55.235Z,51.20
2023-05-17T11:39:51.608Z,51.51
2023-05-17T11:40:51.599Z,51.51
2023-05-17T11:41:51.605Z,51.00
2023-05-17T11:42:51.560Z,51.28
2023-05-17T11:43:51.590Z,50.67
2023-05-17T11:44:51.541Z,51.18
2023-05-17T11:45:53.497Z,51.28
2023-05-17T11:46:51.516Z,50.37
2023-05-17T11:47:51.584Z,51.67
2023-05-17T11:48:51.517Z,51.79
2023-05-17T11:49:53.144Z,52.43
2023-05-17T11:50:51.579Z,52.63
2023-05-17T11:51:52.395Z,52.76
2023-05-17T11:52:51.479Z,53.47
2023-05-17T11:53:51.441Z,53.47
2023-05-17T11:54:51.471Z,54.08
2023-05-17T11:55:51.427Z,52.68
2023-05-17T11:56:51.400Z,52.27
2023-05-17T11:57:51.435Z,52.98
2023-05-17T11:58:51.380Z,52.37
2023-05-17T11:59:51.444Z,53.16
2023-05-17T12:00:51.373Z,53.96
2023-05-17T12:01:51.437Z,53.14
2023-05-17T12:02:51.377Z,52.61
2023-05-17T12:03:51.344Z,52.71
2023-05-17T12:04:51.398Z,52.48
2023-05-17T12:05:51.394Z,52.48
2023-05-17T12:06:51.552Z,51.36
2023-05-17T12:07:51.318Z,50.45
2023-05-17T12:08:53.929Z,50.45
2023-05-17T12:09:51.289Z,51.16
2023-05-17T12:10:51.325Z,51.56
2023-05-17T12:11:51.241Z,52.98
2023-05-17T12:12:51.229Z,51.64
2023-05-17T12:13:51.277Z,51.75
2023-05-17T12:14:51.195Z,50.52
2023-05-17T12:15:51.237Z,52.03
2023-05-17T12:16:51.227Z,50.09
2023-05-17T12:17:51.941Z,50.60
2023-05-17T12:18:51.507Z,51.29
2023-05-17T12:19:51.257Z,50.27
2023-05-17T12:20:51.149Z,50.88
2023-05-17T12:21:51.145Z,49.56
2023-05-17T12:22:51.294Z,48.47
2023-05-17T12:23:51.279Z,49.00
2023-05-17T12:24:51.112Z,48.82
2023-05-17T12:25:51.081Z,49.73
2023-05-17T12:26:51.139Z,51.06
2023-05-17T12:27:51.088Z,51.61
2023-05-17T12:28:51.185Z,52.33
2023-05-17T12:29:51.066Z,53.85
2023-05-17T12:30:51.076Z,54.46
2023-05-17T12:31:51.109Z,52.66
2023-05-17T12:32:51.111Z,53.50
2023-05-17T12:33:51.108Z,53.42
2023-05-17T12:34:50.974Z,54.44
2023-05-17T12:35:50.968Z,54.51
2023-05-17T12:36:51.007Z,54.00
2023-05-17T12:37:50.971Z,53.88
2023-05-17T12:38:50.966Z,53.37
2023-05-17T12:39:51.054Z,51.74
2023-05-17T12:40:50.983Z,51.81
2023-05-17T12:41:54.447Z,52.43
2023-05-17T12:42:50.893Z,51.72
2023-05-17T12:43:53.104Z,52.10
2023-05-17T12:44:50.884Z,52.71
2023-05-17T12:45:50.885Z,50.87
2023-05-17T12:46:50.912Z,50.24
2023-05-17T12:47:50.921Z,49.53
2023-05-17T12:48:50.845Z,49.63
2023-05-17T12:49:50.818Z,49.94
2023-05-17T12:50:50.803Z,49.65
2023-05-17T12:51:50.844Z,50.04
2023-05-17T12:52:50.813Z,49.63
2023-05-17T12:53:50.785Z,50.24
2023-05-17T12:54:50.758Z,50.95
2023-05-17T12:55:50.903Z,51.46
2023-05-17T12:56:50.763Z,51.56
2023-05-17T12:57:50.746Z,50.65
2023-05-17T12:58:50.715Z,51.03
2023-05-17T12:59:50.709Z,51.77
2023-05-17T13:00:50.698Z,52.50
2023-05-17T13:01:50.671Z,53.11
2023-05-17T13:02:50.742Z,53.02
2023-05-17T13:03:50.787Z,54.33
2023-05-17T13:04:50.689Z,54.24
2023-05-17T13:05:50.640Z,53.83
2023-05-17T13:06:50.673Z,54.64
2023-05-17T13:07:50.645Z,53.50
2023-05-17T13:08:50.594Z,52.89
2023-05-17T13:09:50.609Z,53.19
2023-05-17T13:10:50.607Z,53.19
2023-05-17T13:11:50.587Z,53.50
2023-05-17T13:12:50.578Z,53.29
2023-05-17T13:13:50.541Z,53.59
2023-05-17T13:14:50.535Z,52.25
2023-05-17T13:15:50.604Z,51.64
2023-05-17T13:16:50.588Z,52.28
2023-05-17T13:17:50.576Z,52.25
2023-05-17T13:18:50.589Z,50.83
2023-05-17T13:19:50.620Z,49.61
2023-05-17T13:20:50.508Z,49.91
2023-05-17T13:21:50.465Z,50.83
2023-05-17T13:22:50.443Z,50.22
2023-05-17T13:23:50.455Z,49.81
2023-05-17T13:24:50.736Z,49.30
2023-05-17T13:25:50.479Z,49.81
2023-05-17T13:26:50.408Z,50.22
2023-05-17T13:27:50.680Z,50.32
2023-05-17T13:28:50.465Z,50.83
2023-05-17T13:29:50.607Z,51.84
2023-05-17T13:30:50.408Z,51.84
2023-05-17T13:31:50.418Z,51.36
2023-05-17T13:32:50.472Z,52.08
2023-05-17T13:33:50.636Z,52.37
2023-05-17T13:34:50.399Z,52.78
2023-05-17T13:35:50.463Z,53.70
2023-05-17T13:36:50.377Z,52.98
2023-05-17T13:37:50.300Z,52.08
2023-05-17T13:38:50.361Z,52.68
2023-05-17T13:39:50.273Z,52.48
2023-05-17T13:40:50.252Z,54.11
2023-05-17T13:41:50.295Z,52.76
2023-05-17T13:42:50.241Z,52.78
2023-05-17T13:43:50.254Z,51.77
2023-05-17T13:44:50.196Z,51.77
2023-05-17T13:45:50.220Z,52.35
2023-05-17T13:46:50.220Z,52.66
2023-05-17T13:47:50.320Z,54.79
2023-05-17T13:48:50.403Z,53.14
2023-05-17T13:49:50.146Z,53.04
2023-05-17T13:50:50.154Z,52.40
2023-05-17T13:51:50.128Z,51.72
2023-05-17T13:52:50.126Z,52.12
2023-05-17T13:53:50.126Z,52.35
2023-05-17T13:54:50.124Z,51.34
2023-05-17T13:55:50.096Z,52.17
2023-05-17T13:56:50.056Z,52.17
2023-05-17T13:57:50.067Z,52.08
2023-05-17T13:58:50.292Z,52.20
2023-05-17T13:59:50.078Z,50.98
2023-05-17T14:00:50.033Z,52.00
2023-05-17T14:01:50.050Z,52.40
2023-05-17T14:02:50.112Z,52.20
2023-05-17T14:03:50.069Z,52.71
2023-05-17T14:04:49.976Z,52.50
2023-05-17T14:05:50.045Z,53.22
2023-05-17T14:06:51.751Z,53.42
2023-05-17T14:07:50.897Z,53.52
2023-05-17T14:08:49.977Z,53.32
2023-05-17T14:09:49.971Z,53.39
2023-05-17T14:10:49.897Z,53.09
2023-05-17T14:11:49.940Z,52.78
2023-05-17T14:12:49.936Z,53.19
2023-05-17T14:13:49.921Z,52.89
2023-05-17T14:14:49.872Z,52.98
2023-05-17T14:15:49.863Z,53.39
2023-05-17T14:16:49.939Z,53.09
2023-05-17T14:17:49.995Z,52.37
2023-05-17T14:18:50.003Z,52.28
2023-05-17T14:19:49.940Z,52.68
2023-05-17T14:20:49.838Z,52.56
2023-05-17T14:21:49.843Z,53.17
2023-05-17T14:22:49.885Z,51.82
2023-05-17T14:23:49.845Z,51.92
2023-05-17T14:24:49.843Z,50.90
2023-05-17T14:25:49.780Z,50.93
2023-05-17T14:26:49.734Z,51.14
2023-05-17T14:27:49.741Z,51.21
2023-05-17T14:28:49.751Z,51.01
2023-05-17T14:29:49.718Z,52.12
2023-05-17T14:30:49.711Z,51.42
2023-05-17T14:31:49.688Z,51.42
2023-05-17T14:32:49.739Z,52.53
2023-05-17T14:33:49.733Z,52.33
2023-05-17T14:34:50.414Z,52.53
2023-05-17T14:35:49.641Z,51.42
2023-05-17T14:36:49.626Z,52.12
2023-05-17T14:37:49.606Z,52.23
2023-05-17T14:38:49.593Z,51.54
2023-05-17T14:40:05.289Z,51.34
2023-05-17T14:40:49.571Z,51.97
2023-05-17T14:41:49.586Z,52.37
2023-05-17T14:42:49.579Z,51.87
2023-05-17T14:43:49.581Z,52.17
2023-05-17T14:44:49.605Z,52.50
2023-05-17T14:45:49.546Z,53.11
2023-05-17T14:46:49.539Z,54.13
2023-05-17T14:47:49.608Z,53.83
2023-05-17T14:48:49.631Z,53.29
2023-05-17T14:49:49.505Z,54.00
2023-05-17T14:50:49.460Z,54.82
2023-05-17T14:51:49.472Z,54.18
2023-05-17T14:52:49.444Z,54.28
2023-05-17T14:53:49.463Z,53.24
2023-05-17T14:54:49.690Z,54.26
2023-05-17T14:55:49.445Z,53.32
2023-05-17T14:56:49.391Z,52.10
2023-05-17T14:57:50.037Z,52.33
2023-05-17T14:58:49.371Z,52.63
2023-05-17T14:59:49.383Z,52.84
2023-05-17T15:00:52.130Z,51.62
2023-05-17T15:01:49.330Z,51.51
2023-05-17T15:02:49.436Z,54.57
2023-05-17T15:03:49.412Z,51.51
2023-05-17T15:04:49.457Z,52.23
2023-05-17T15:05:49.321Z,52.63
2023-05-17T15:06:49.296Z,53.24
2023-05-17T15:07:49.318Z,53.14
2023-05-17T15:08:49.257Z,53.78
2023-05-17T15:09:49.296Z,53.39
2023-05-17T15:10:49.224Z,54.21
2023-05-17T15:11:49.238Z,53.50
2023-05-17T15:12:49.274Z,54.13
2023-05-17T15:13:49.204Z,55.15
2023-05-17T15:14:49.796Z,54.31
2023-05-17T15:15:49.187Z,54.74
2023-05-17T15:16:49.222Z,54.85
2023-05-17T15:17:51.124Z,55.15
2023-05-17T15:18:49.238Z,54.94
2023-05-17T15:19:49.359Z,54.74
2023-05-17T15:20:49.124Z,54.74
2023-05-17T15:21:49.143Z,55.35
2023-05-17T15:22:49.100Z,55.15
2023-05-17T15:23:49.121Z,55.25
2023-05-17T15:24:49.120Z,54.74
2023-05-17T15:25:49.078Z,55.55
2023-05-17T15:26:51.150Z,54.64
2023-05-17T15:27:49.065Z,54.64
2023-05-17T15:28:49.069Z,54.54
2023-05-17T15:29:49.030Z,54.64
2023-05-17T15:30:49.026Z,54.31
2023-05-17T15:31:49.033Z,53.93
2023-05-17T15:32:49.053Z,53.83
2023-05-17T15:33:49.017Z,54.33
2023-05-17T15:34:49.061Z,53.83
2023-05-17T15:35:48.967Z,53.90
2023-05-17T15:36:48.947Z,53.50
2023-05-17T15:37:48.984Z,53.50
2023-05-17T15:38:48.915Z,53.19
2023-05-17T15:39:48.961Z,53.09
2023-05-17T15:40:48.997Z,53.39
2023-05-17T15:41:48.941Z,52.78
2023-05-17T15:42:48.886Z,52.37
2023-05-17T15:43:49.040Z,52.68
2023-05-17T15:44:48.873Z,51.77
2023-05-17T15:45:48.885Z,51.67
2023-05-17T15:46:48.854Z,52.08
2023-05-17T15:47:48.914Z,52.37
2023-05-17T15:48:48.907Z,52.28
2023-05-17T15:49:48.820Z,52.58
2023-05-17T15:50:48.790Z,53.39
2023-05-17T15:51:48.781Z,53.80
2023-05-17T15:52:48.800Z,54.31
2023-05-17T15:53:49.840Z,53.90
2023-05-17T15:54:48.809Z,54.00
2023-05-17T15:55:48.807Z,53.50
2023-05-17T15:56:48.901Z,54.24
2023-05-17T15:57:48.723Z,54.74
2023-05-17T15:58:48.718Z,54.72
2023-05-17T15:59:48.695Z,55.02
2023-05-17T16:00:48.730Z,54.41
2023-05-17T16:01:51.668Z,55.33
2023-05-17T16:02:48.727Z,55.22
2023-05-17T16:03:48.746Z,55.05
2023-05-17T16:04:48.644Z,54.94
2023-05-17T16:05:48.756Z,55.18
2023-05-17T16:06:48.653Z,55.28
2023-05-17T16:07:48.608Z,55.48
2023-05-17T16:08:48.606Z,55.68
2023-05-17T16:09:48.681Z,55.99
2023-05-17T16:10:48.600Z,55.89
2023-05-17T16:11:49.591Z,56.09
2023-05-17T16:12:48.543Z,56.50
2023-05-17T16:13:48.624Z,57.01
2023-05-17T16:14:48.535Z,57.62
2023-05-17T16:15:48.516Z,57.92
2023-05-17T16:16:48.536Z,58.33
2023-05-17T16:17:48.539Z,58.33
2023-05-17T16:18:48.661Z,58.23
2023-05-17T16:19:48.517Z,58.46
2023-05-17T16:20:48.511Z,58.56
2023-05-17T16:21:50.407Z,58.97
2023-05-17T16:22:48.442Z,59.17
2023-05-17T16:23:48.435Z,59.38
2023-05-17T16:24:48.465Z,59.17
2023-05-17T16:25:48.409Z,59.07
2023-05-17T16:26:49.427Z,59.28
2023-05-17T16:27:48.430Z,59.48
2023-05-17T16:28:48.410Z,59.38
2023-05-17T16:29:48.360Z,58.87
2023-05-17T16:30:48.368Z,58.97
2023-05-17T16:31:48.371Z,59.48
2023-05-17T16:32:48.372Z,59.48
2023-05-17T16:33:48.331Z,59.48
2023-05-17T16:34:48.302Z,59.07
2023-05-17T16:35:48.302Z,58.76
2023-05-17T16:36:48.296Z,58.46
2023-05-17T16:37:48.262Z,58.49
2023-05-17T16:38:48.275Z,58.89
2023-05-17T16:39:48.303Z,59.10
2023-05-17T16:40:48.225Z,59.20
2023-05-17T16:41:48.247Z,59.20
2023-05-17T16:42:48.221Z,58.89
2023-05-17T16:43:48.232Z,58.49
2023-05-17T16:44:48.201Z,58.69
2023-05-17T16:45:48.205Z,59.10
2023-05-17T16:46:48.221Z,59.00
2023-05-17T16:47:48.206Z,58.89
2023-05-17T16:48:48.144Z,59.20
2023-05-17T16:49:48.129Z,59.03
2023-05-17T16:50:48.144Z,59.43
2023-05-17T16:51:48.184Z,60.02
2023-05-17T16:52:48.142Z,59.43
2023-05-17T16:53:48.092Z,59.43
2023-05-17T16:54:48.102Z,59.43
2023-05-17T16:55:48.081Z,59.64
2023-05-17T16:56:48.090Z,59.94
2023-05-17T16:57:48.105Z,59.84
2023-05-17T16:58:48.053Z,59.43
2023-05-17T16:59:48.048Z,59.43
2023-05-17T17:00:48.036Z,59.94
2023-05-17T17:01:48.037Z,59.74
2023-05-17T17:02:48.060Z,59.84
2023-05-17T17:03:47.996Z,59.84
2023-05-17T17:04:47.978Z,60.14
2023-05-17T17:05:47.951Z,60.07
2023-05-17T17:06:47.969Z,60.35
2023-05-17T17:07:48.018Z,60.45
2023-05-17T17:08:47.917Z,60.05
2023-05-17T17:09:48.433Z,60.35
2023-05-17T17:10:47.938Z,60.76
2023-05-17T17:11:47.906Z,60.17
2023-05-17T17:12:48.800Z,60.58
2023-05-17T17:13:47.863Z,61.09
2023-05-17T17:14:47.884Z,60.58
2023-05-17T17:15:47.880Z,60.89
2023-05-17T17:16:47.910Z,61.19
2023-05-17T17:17:47.954Z,61.50
2023-05-17T17:18:47.889Z,61.09
2023-05-17T17:19:47.819Z,61.30
2023-05-17T17:20:47.784Z,60.69
2023-05-17T17:21:47.767Z,60.82
2023-05-17T17:22:47.826Z,61.43
2023-05-17T17:23:47.810Z,61.43
2023-05-17T17:24:47.733Z,61.32
2023-05-17T17:25:47.762Z,61.53
2023-05-17T17:26:47.739Z,61.32
2023-05-17T17:27:47.701Z,61.53
2023-05-17T17:28:47.701Z,61.83
2023-05-17T17:29:47.715Z,61.12
2023-05-17T17:30:47.698Z,61.32
2023-05-17T17:31:47.691Z,61.32
2023-05-17T17:32:47.815Z,61.15
2023-05-17T17:33:48.327Z,61.56
2023-05-17T17:34:47.713Z,61.35
2023-05-17T17:35:47.623Z,61.66
2023-05-17T17:36:47.608Z,61.97
2023-05-17T17:37:47.620Z,61.46
2023-05-17T17:38:47.586Z,61.35
2023-05-17T17:39:47.675Z,61.25
2023-05-17T17:40:47.582Z,61.46
2023-05-17T17:41:47.546Z,61.66
2023-05-17T17:42:47.596Z,61.35
2023-05-17T17:43:47.532Z,61.35
2023-05-17T17:44:48.528Z,61.87
2023-05-17T17:45:47.554Z,61.38
2023-05-17T17:46:47.564Z,61.69
2023-05-17T17:47:47.560Z,61.90
2023-05-17T17:48:47.480Z,61.79
2023-05-17T17:49:47.513Z,61.69
2023-05-17T17:50:47.469Z,61.90
2023-05-17T17:51:47.445Z,62.20
2023-05-17T17:52:47.434Z,61.99
2023-05-17T17:53:47.422Z,62.30
2023-05-17T17:54:47.410Z,62.30
2023-05-17T17:55:47.412Z,62.40
2023-05-17T17:56:47.394Z,63.12
2023-05-17T17:57:47.366Z,62.84
2023-05-17T17:58:47.375Z,63.15
2023-05-17T17:59:47.361Z,63.15
2023-05-17T18:00:47.393Z,63.25
2023-05-17T18:01:47.419Z,63.35
2023-05-17T18:02:47.359Z,63.35
2023-05-17T18:03:47.319Z,63.56
2023-05-17T18:04:47.331Z,63.56
2023-05-17T18:05:47.336Z,63.76
2023-05-17T18:06:47.273Z,63.86
2023-05-17T18:07:47.252Z,64.07
2023-05-17T18:08:47.249Z,64.07
2023-05-17T18:09:47.258Z,63.86
2023-05-17T18:10:47.232Z,63.79
2023-05-17T18:11:47.217Z,63.48
2023-05-17T18:12:49.002Z,64.00
2023-05-17T18:13:47.275Z,63.69
2023-05-17T18:14:47.202Z,63.48
2023-05-17T18:15:47.223Z,63.79
2023-05-17T18:16:47.192Z,63.59
2023-05-17T18:17:47.165Z,63.39
2023-05-17T18:18:47.256Z,63.59
2023-05-17T18:19:48.617Z,64.30
2023-05-17T18:20:47.105Z,63.79
2023-05-17T18:21:47.106Z,64.20
2023-05-17T18:22:47.117Z,64.00
2023-05-17T18:23:47.078Z,64.00
2023-05-17T18:24:47.084Z,64.61
2023-05-17T18:25:47.054Z,64.71
2023-05-17T18:26:47.053Z,63.89
2023-05-17T18:27:47.025Z,64.40
2023-05-17T18:28:47.058Z,64.40
2023-05-17T18:29:47.022Z,64.61
2023-05-17T18:30:47.048Z,64.33
2023-05-17T18:31:47.025Z,63.72
2023-05-17T18:32:47.065Z,63.92
2023-05-17T18:33:47.026Z,63.92
2023-05-17T18:34:46.952Z,64.03
2023-05-17T18:35:46.984Z,63.92
2023-05-17T18:36:46.924Z,63.92
2023-05-17T18:37:46.916Z,64.23
2023-05-17T18:38:46.956Z,64.33
2023-05-17T18:39:46.991Z,64.47
2023-05-17T18:40:46.906Z,64.57
2023-05-17T18:41:46.878Z,64.87
2023-05-17T18:42:46.898Z,64.67
2023-05-17T18:43:46.915Z,64.67
2023-05-17T18:44:46.841Z,64.57
2023-05-17T18:45:46.849Z,64.57
2023-05-17T18:46:46.890Z,64.98
2023-05-17T18:47:46.875Z,64.87
2023-05-17T18:48:46.857Z,64.98
2023-05-17T18:49:46.785Z,64.98
2023-05-17T18:50:46.767Z,64.87
2023-05-17T18:51:46.763Z,65.18
2023-05-17T18:52:46.938Z,65.18
2023-05-17T18:53:46.830Z,65.28
2023-05-17T18:54:46.745Z,65.69
2023-05-17T18:55:46.725Z,65.28
2023-05-17T18:56:46.806Z,66.03
2023-05-17T18:57:46.708Z,65.72
2023-05-17T18:58:46.714Z,65.72
2023-05-17T18:59:46.664Z,66.03
2023-05-17T19:00:46.744Z,66.03
2023-05-17T19:01:46.765Z,66.03
2023-05-17T19:02:46.659Z,66.24
2023-05-17T19:03:46.643Z,66.44
2023-05-17T19:04:46.637Z,66.64
2023-05-17T19:05:46.661Z,66.64
2023-05-17T19:06:46.607Z,66.75
2023-05-17T19:07:46.573Z,67.26
2023-05-17T19:08:46.644Z,67.36
2023-05-17T19:09:46.626Z,67.26
2023-05-17T19:10:46.566Z,67.40
2023-05-17T19:11:46.626Z,67.49
2023-05-17T19:12:46.532Z,67.80
2023-05-17T19:13:46.559Z,67.70
2023-05-17T19:14:46.510Z,67.70
2023-05-17T19:15:46.575Z,68.01
2023-05-17T19:16:46.530Z,68.11
2023-05-17T19:17:46.560Z,68.52
2023-05-17T19:18:46.510Z,68.32
2023-05-17T19:19:46.442Z,68.52
2023-05-17T19:20:46.462Z,68.62
2023-05-17T19:21:46.447Z,68.73
2023-05-17T19:22:46.415Z,68.83
2023-05-17T19:23:46.409Z,68.93
2023-05-17T19:24:46.402Z,68.83
2023-05-17T19:25:46.429Z,68.83
2023-05-17T19:26:46.491Z,68.93
2023-05-17T19:27:46.358Z,68.86
2023-05-17T19:28:46.374Z,68.96
2023-05-17T19:29:46.356Z,69.06
2023-05-17T19:30:46.365Z,69.06
2023-05-17T19:31:46.411Z,69.27
2023-05-17T19:32:46.332Z,69.27
2023-05-17T19:33:46.951Z,69.37
2023-05-17T19:34:46.307Z,69.37
2023-05-17T19:35:46.293Z,69.47
2023-05-17T19:36:46.296Z,69.47
2023-05-17T19:37:46.259Z,69.57
2023-05-17T19:38:51.969Z,69.78
2023-05-17T19:39:46.411Z,69.78
2023-05-17T19:40:46.275Z,69.89
2023-05-17T19:41:46.258Z,70.09
2023-05-17T19:42:46.191Z,70.09
2023-05-17T19:43:46.195Z,70.19
2023-05-17T19:44:46.185Z,70.09
2023-05-17T19:45:46.178Z,70.19
2023-05-17T19:46:46.235Z,70.29
2023-05-17T19:47:46.169Z,70.29
2023-05-17T19:48:46.202Z,70.53
2023-05-17T19:49:46.169Z,70.64
2023-05-17T19:50:46.117Z,70.73
2023-05-17T19:51:46.142Z,70.84
2023-05-17T19:52:46.103Z,70.94
2023-05-17T19:53:53.648Z,71.04
2023-05-17T19:54:46.072Z,71.15
2023-05-17T19:55:46.056Z,71.25
2023-05-17T19:56:46.696Z,71.25
2023-05-17T19:57:46.035Z,71.45
2023-05-17T19:58:46.025Z,71.45
2023-05-17T19:59:45.994Z,71.90
2023-05-17T20:00:46.016Z,71.90
2023-05-17T20:01:46.052Z,72.00
2023-05-17T20:02:46.105Z,72.10
2023-05-17T20:03:46.160Z,72.20
2023-05-17T20:04:45.945Z,72.20
2023-05-17T20:05:45.992Z,72.41
2023-05-17T20:06:46.013Z,72.31
2023-05-17T20:07:45.947Z,72.51
2023-05-17T20:08:45.897Z,72.72
2023-05-17T20:09:45.932Z,72.82
2023-05-17T20:10:45.900Z,72.75
2023-05-17T20:11:45.880Z,72.96
2023-05-17T20:12:45.870Z,72.85
2023-05-17T20:13:49.796Z,73.06
2023-05-17T20:14:45.842Z,72.96
2023-05-17T20:15:45.825Z,73.16
2023-05-17T20:16:46.060Z,73.16
2023-05-17T20:17:45.838Z,72.96
2023-05-17T20:18:45.841Z,73.06
2023-05-17T20:19:46.112Z,73.16
2023-05-17T20:20:45.762Z,73.06
2023-05-17T20:21:45.810Z,73.47
2023-05-17T20:22:46.389Z,73.47
2023-05-17T20:23:45.725Z,73.47
2023-05-17T20:24:55.172Z,73.36
2023-05-17T20:25:45.764Z,73.47
2023-05-17T20:26:45.776Z,73.68
2023-05-17T20:27:45.774Z,73.40
2023-05-17T20:28:45.702Z,73.40
2023-05-17T20:29:45.672Z,73.40
2023-05-17T20:30:45.673Z,73.40
2023-05-17T20:31:45.988Z,73.61
2023-05-17T20:32:45.726Z,73.61
2023-05-17T20:33:45.627Z,73.40
2023-05-17T20:34:45.600Z,73.50
2023-05-17T20:35:45.609Z,73.50
2023-05-17T20:36:45.631Z,73.50
2023-05-17T20:37:45.585Z,73.50
2023-05-17T20:38:45.593Z,73.71
2023-05-17T20:39:45.610Z,73.61
2023-05-17T20:40:45.552Z,73.71
2023-05-17T20:41:45.527Z,73.81
2023-05-17T20:42:45.533Z,73.91
2023-05-17T20:43:45.543Z,73.81
2023-05-17T20:44:45.514Z,74.02
2023-05-17T20:45:45.575Z,74.02
2023-05-17T20:46:45.479Z,73.91
2023-05-17T20:47:45.580Z,74.02
2023-05-17T20:48:45.453Z,74.12
2023-05-17T20:49:45.483Z,74.02
2023-05-17T20:50:45.477Z,73.91
2023-05-17T20:51:45.553Z,74.02
2023-05-17T20:52:45.399Z,74.12
2023-05-17T20:53:45.418Z,74.12
2023-05-17T20:54:45.390Z,74.12
2023-05-17T20:55:45.448Z,74.12
2023-05-17T20:56:45.371Z,74.22
2023-05-17T20:57:45.353Z,74.22
2023-05-17T20:58:45.349Z,74.12
2023-05-17T20:59:45.376Z,74.32
2023-05-17T21:00:45.387Z,74.53
2023-05-17T21:01:45.369Z,74.32
2023-05-17T21:02:45.427Z,74.32
2023-05-17T21:03:45.639Z,74.32
2023-05-17T21:04:45.266Z,74.22
2023-05-17T21:05:45.312Z,74.43
2023-05-17T21:06:45.254Z,74.63
2023-05-17T21:07:45.251Z,74.84
2023-05-17T21:08:45.248Z,74.53
2023-05-17T21:09:45.236Z,74.63
2023-05-17T21:10:45.205Z,74.63
2023-05-17T21:11:45.258Z,74.43
2023-05-17T21:12:45.189Z,74.32
2023-05-17T21:13:45.206Z,74.32
2023-05-17T21:14:45.172Z,74.43
2023-05-17T21:15:45.242Z,74.43
2023-05-17T21:16:45.150Z,74.43
2023-05-17T21:17:45.256Z,74.53
2023-05-17T21:18:45.325Z,74.74
2023-05-17T21:19:45.166Z,74.74
2023-05-17T21:20:45.190Z,74.84
2023-05-17T21:21:45.115Z,74.94
2023-05-17T21:22:45.091Z,74.98
2023-05-17T21:23:45.125Z,74.87
2023-05-17T21:24:45.184Z,74.87
2023-05-17T21:25:45.141Z,75.08
2023-05-17T21:26:45.101Z,75.70
2023-05-17T21:27:45.116Z,76.10
2023-05-17T21:28:44.999Z,75.80
2023-05-17T21:29:45.070Z,75.80
2023-05-17T21:30:45.125Z,75.90
2023-05-17T21:31:45.151Z,76.31
2023-05-17T21:32:45.093Z,76.35
2023-05-17T21:33:45.020Z,75.93
2023-05-17T21:34:44.992Z,75.83
2023-05-17T21:35:45.015Z,75.63
2023-05-17T21:36:44.947Z,75.63
2023-05-17T21:37:44.963Z,76.04
2023-05-17T21:38:44.938Z,76.14
2023-05-17T21:39:44.898Z,75.83
2023-05-17T21:40:44.905Z,75.93
2023-05-17T21:41:44.923Z,75.73
2023-05-17T21:42:44.854Z,75.52
2023-05-17T21:43:44.862Z,75.63
2023-05-17T21:44:44.894Z,76.14
2023-05-17T21:45:44.876Z,76.25
2023-05-17T21:46:44.844Z,76.35
2023-05-17T21:47:44.821Z,76.65
2023-05-17T21:48:44.823Z,76.59
2023-05-17T21:49:44.786Z,76.48
2023-05-17T21:50:44.764Z,76.69
2023-05-17T21:51:44.747Z,77.92
2023-05-17T21:52:44.737Z,77.51
2023-05-17T21:53:44.730Z,77.41
2023-05-17T21:54:44.770Z,77.00
2023-05-17T21:56:00.776Z,77.00
2023-05-17T21:56:44.696Z,77.31
2023-05-17T21:57:45.676Z,77.10
2023-05-17T21:58:44.703Z,77.41
2023-05-17T21:59:44.675Z,77.41
2023-05-17T22:00:44.645Z,77.20
2023-05-17T22:01:44.824Z,77.00
2023-05-17T22:02:44.844Z,77.31
2023-05-17T22:03:44.764Z,77.72
2023-05-17T22:04:44.680Z,77.82
2023-05-17T22:05:44.606Z,78.03
2023-05-17T22:06:44.576Z,77.51
2023-05-17T22:07:44.612Z,77.41
2023-05-17T22:08:44.558Z,77.20
2023-05-17T22:09:44.620Z,77.72
2023-05-17T22:10:44.547Z,77.10
2023-05-17T22:11:44.520Z,77.00
2023-05-17T22:12:44.564Z,76.97
2023-05-17T22:13:44.524Z,77.27
2023-05-17T22:14:44.543Z,77.58
2023-05-17T22:15:44.599Z,76.86
2023-05-17T22:16:44.489Z,76.35
2023-05-17T22:17:51.505Z,76.04
2023-05-17T22:18:44.540Z,76.55
2023-05-17T22:19:44.436Z,76.86
2023-05-17T22:20:44.420Z,76.35
2023-05-17T22:21:44.411Z,76.35
2023-05-17T22:22:44.403Z,76.14
2023-05-17T22:23:44.415Z,75.93
2023-05-17T22:24:44.383Z,76.35
2023-05-17T22:25:44.368Z,76.21
2023-05-17T22:26:44.354Z,76.00
2023-05-17T22:27:44.430Z,76.21
2023-05-17T22:28:44.332Z,76.31
2023-05-17T22:29:44.326Z,75.80
2023-05-17T22:30:44.308Z,75.59
2023-05-17T22:31:44.368Z,75.49
2023-05-17T22:32:44.396Z,75.49
2023-05-17T22:33:44.318Z,75.38
2023-05-17T22:34:45.037Z,75.38
2023-05-17T22:35:46.054Z,75.70
2023-05-17T22:36:44.314Z,75.59
2023-05-17T22:37:44.263Z,75.18
2023-05-17T22:38:44.219Z,75.49
2023-05-17T22:39:44.262Z,74.77
2023-05-17T22:40:44.203Z,75.70
2023-05-17T22:41:44.207Z,75.18
2023-05-17T22:42:44.195Z,74.98
2023-05-17T22:43:44.229Z,75.08
2023-05-17T22:44:44.146Z,74.98
2023-05-17T22:45:44.170Z,75.18
2023-05-17T22:46:44.199Z,74.87
2023-05-17T22:47:44.217Z,74.87
2023-05-17T22:48:44.108Z,74.98
2023-05-17T22:49:44.124Z,74.67
2023-05-17T22:50:44.093Z,74.67
2023-05-17T22:51:44.104Z,75.08
2023-05-17T22:52:44.062Z,75.90
2023-05-17T22:53:44.111Z,75.80
2023-05-17T22:54:44.110Z,74.87
2023-05-17T22:55:44.032Z,74.46
2023-05-17T22:56:44.032Z,74.46
2023-05-17T22:57:46.793Z,74.26
2023-05-17T22:58:44.030Z,74.57
2023-05-17T22:59:44.235Z,74.67
2023-05-17T23:00:43.983Z,74.87
2023-05-17T23:01:44.009Z,74.67
2023-05-17T23:02:44.008Z,74.67
2023-05-17T23:03:43.955Z,74.98
2023-05-17T23:04:43.927Z,75.01
2023-05-17T23:05:43.937Z,74.80
2023-05-17T23:06:43.927Z,75.42
2023-05-17T23:07:43.917Z,75.32
2023-05-17T23:08:43.895Z,75.52
2023-05-17T23:09:44.035Z,75.52
2023-05-17T23:10:43.902Z,76.25
2023-05-17T23:11:43.920Z,75.93
2023-05-17T23:12:43.852Z,76.38
2023-05-17T23:13:43.845Z,76.18
2023-05-17T23:14:43.829Z,76.59
2023-05-17T23:15:43.860Z,76.38
2023-05-17T23:16:43.831Z,76.38
2023-05-17T23:17:43.870Z,76.38
2023-05-17T23:18:43.850Z,77.31